Time;durP1;ratioP1;P1;durP2;ratioP2;P2;SDS_P1;SDS_P2;PMS_P1;PMS_P2;Temp;Humidity;BMP_temperature;BMP_pressure;BME280_temperature;BME280_humidity;BME280_pressure;Samples;Min_cycle;Max_cycle;Signal;HPM_P1;HPM_P2
2023/05/19 00:00:59;;;;;;;11.95;2.88;;;13.60;76.50;;;;;;5030431;28;20041;-65
2023/05/19 00:03:25;;;;;;;;;;;13.50;77.20;;;;;;5030833;28;20048;-65
2023/05/19 00:05:56;;;;;;;6.15;1.92;;;13.40;77.80;;;;;;5030726;28;19908;-65
2023/05/19 00:08:23;;;;;;;5.90;2.22;;;13.40;77.30;;;;;;5029954;28;20037;-65
2023/05/19 00:10:49;;;;;;;6.95;2.38;;;13.40;78.00;;;;;;5030389;28;20273;-64
2023/05/19 00:13:15;;;;;;;9.18;2.15;;;13.40;77.80;;;;;;5030198;28;20034;-65
2023/05/19 00:15:41;;;;;;;7.93;2.10;;;13.30;77.70;;;;;;5030347;28;20416;-65
2023/05/19 00:18:07;;;;;;;10.30;2.55;;;13.30;77.20;;;;;;5030442;28;20029;-64
2023/05/19 00:20:33;;;;;;;6.82;1.90;;;13.30;77.60;;;;;;5031149;28;20034;-65
2023/05/19 00:22:59;;;;;;;6.93;2.65;;;13.30;77.90;;;;;;5030562;28;20427;-65
2023/05/19 00:25:24;;;;;;;7.65;2.15;;;13.20;78.10;;;;;;5030474;28;20110;-64
2023/05/19 00:27:50;;;;;;;7.15;2.08;;;13.20;78.40;;;;;;5030032;28;20045;-65
2023/05/19 00:30:16;;;;;;;7.22;1.85;;;13.10;78.70;;;;;;5029985;28;20064;-65
2023/05/19 00:32:42;;;;;;;8.40;2.25;;;13.20;79.20;;;;;;5030451;28;20037;-64
2023/05/19 00:35:08;;;;;;;5.35;1.80;;;13.20;79.00;;;;;;5030022;28;20408;-66
2023/05/19 00:37:33;;;;;;;10.10;1.98;;;13.20;79.50;;;;;;5029937;28;20022;-64
2023/05/19 00:39:59;;;;;;;6.35;2.30;;;13.20;79.90;;;;;;5030107;28;20037;-64
2023/05/19 00:42:25;;;;;;;11.50;2.15;;;13.20;79.90;;;;;;5029984;28;20040;-66
2023/05/19 00:44:51;;;;;;;10.73;2.00;;;13.10;79.80;;;;;;5013102;28;20402;-64
2023/05/19 00:47:16;;;;;;;6.90;2.38;;;13.20;80.00;;;;;;5030250;28;20134;-64
2023/05/19 00:49:42;;;;;;;11.20;2.03;;;13.10;80.50;;;;;;5030140;28;20057;-63
2023/05/19 00:52:08;;;;;;;7.13;1.95;;;13.10;80.00;;;;;;5029785;28;20026;-65
2023/05/19 00:54:34;;;;;;;9.55;2.28;;;13.20;80.10;;;;;;5029836;28;20029;-66
2023/05/19 00:57:00;;;;;;;8.65;2.53;;;13.10;80.10;;;;;;5030092;28;20041;-65
2023/05/19 00:59:26;;;;;;;7.85;2.30;;;13.20;80.10;;;;;;5030625;28;20379;-65
2023/05/19 01:01:52;;;;;;;5.50;2.05;;;13.20;80.70;;;;;;5012414;28;20029;-66
2023/05/19 01:04:19;;;;;;;7.43;2.35;;;13.20;80.30;;;;;;5029828;28;20045;-64
2023/05/19 01:06:54;;;;;;;9.60;2.20;;;13.20;80.50;;;;;;5029808;28;20033;-64
2023/05/19 01:09:21;;;;;;;9.13;2.20;;;13.20;80.80;;;;;;5029860;28;20091;-66
2023/05/19 01:11:48;;;;;;;9.63;2.20;;;13.10;80.70;;;;;;5012705;28;20237;-64
2023/05/19 01:14:14;;;;;;;7.57;2.28;;;13.10;81.50;;;;;;5030092;28;20041;-66
2023/05/19 01:16:49;;;;;;;7.22;1.77;;;13.10;81.10;;;;;;5030011;28;20030;-65
2023/05/19 01:19:49;;;;;;;14.25;2.60;;;13.10;81.20;;;;;;5031255;28;20084;-64
2023/05/19 01:22:47;;;;;;;15.02;2.53;;;13.10;81.30;;;;;;5033526;28;20460;-65
2023/05/19 01:25:44;;;;;;;12.30;2.30;;;13.00;82.10;;;;;;5033186;28;20044;-65
2023/05/19 01:28:44;;;;;;;9.73;2.00;;;13.00;82.40;;;;;;5033174;28;20109;-65
2023/05/19 01:31:11;;;;;;;6.28;2.05;;;13.00;82.40;;;;;;5015495;28;20121;-65
2023/05/19 01:33:39;;;;;;;7.80;2.05;;;13.00;81.90;;;;;;5033090;28;20033;-64
2023/05/19 01:36:07;;;;;;;17.85;2.78;;;13.00;82.50;;;;;;5032887;28;20025;-66
2023/05/19 01:38:33;;;;;;;7.23;1.80;;;13.10;81.80;;;;;;5033684;28;20158;-65
2023/05/19 01:41:01;;;;;;;9.27;2.45;;;13.10;81.90;;;;;;5015397;28;20033;-66
2023/05/19 01:43:28;;;;;;;7.75;2.42;;;13.10;81.80;;;;;;5033101;28;20033;-65
2023/05/19 01:45:56;;;;;;;8.77;2.15;;;13.00;82.10;;;;;;5033045;28;20041;-66
2023/05/19 01:48:22;;;;;;;6.32;2.03;;;13.00;82.30;;;;;;5033060;28;20041;-64
2023/05/19 01:50:48;;;;;;;8.23;2.05;;;13.00;83.40;;;;;;5015851;28;20029;-66
2023/05/19 01:53:14;;;;;;;10.00;2.30;;;12.90;83.80;;;;;;5033094;28;20374;-64
2023/05/19 01:55:46;;;;;;;9.95;2.35;;;12.80;84.70;;;;;;5033086;28;20367;-66
2023/05/19 01:58:42;;;;;;;12.45;2.20;;;12.60;85.20;;;;;;5032720;28;20518;-65
2023/05/19 02:01:26;;;;;;;10.98;2.25;;;12.70;85.90;;;;;;5032949;28;20356;-65
2023/05/19 02:04:11;;;;;;;6.18;1.88;;;12.50;85.20;;;;;;5032709;28;20525;-65
2023/05/19 02:06:36;;;;;;;7.43;1.77;;;12.50;86.00;;;;;;5015210;28;20490;-64
2023/05/19 02:09:41;;;;;;;7.47;2.13;;;12.50;86.00;;;;;;5032805;28;20029;-66
2023/05/19 02:12:29;;;;;;;7.35;1.92;;;12.50;86.30;;;;;;5014247;28;20367;-66
2023/05/19 02:15:13;;;;;;;7.72;2.22;;;12.40;86.70;;;;;;5032980;28;20056;-66
2023/05/19 02:17:43;;;;;;;6.95;2.38;;;12.40;87.00;;;;;;5032879;28;20056;-63
2023/05/19 02:20:09;;;;;;;15.38;2.28;;;12.20;87.40;;;;;;5032769;28;20025;-65
2023/05/19 02:22:35;;;;;;;6.72;2.42;;;12.20;87.80;;;;;;5032423;28;20057;-64
2023/05/19 02:25:01;;;;;;;7.03;2.45;;;12.20;88.00;;;;;;5032007;28;20475;-64
2023/05/19 02:27:27;;;;;;;8.27;2.40;;;12.00;88.40;;;;;;5014817;28;20048;-65
2023/05/19 02:29:53;;;;;;;12.95;2.78;;;12.00;88.50;;;;;;5032664;28;20036;-65
2023/05/19 02:32:19;;;;;;;5.80;2.38;;;12.00;88.70;;;;;;5032054;28;20041;-64
2023/05/19 02:34:45;;;;;;;5.75;2.50;;;12.00;89.20;;;;;;5032152;28;20033;-65
2023/05/19 02:37:15;;;;;;;8.77;2.45;;;11.90;89.80;;;;;;5032196;28;20395;-64
2023/05/19 02:39:41;;;;;;;6.15;2.22;;;11.90;89.90;;;;;;5032065;28;20103;-64
2023/05/19 02:42:07;;;;;;;7.30;2.42;;;11.80;90.00;;;;;;5031836;28;20117;-64
2023/05/19 02:44:33;;;;;;;7.30;2.85;;;11.70;90.30;;;;;;5032338;28;20116;-64
2023/05/19 02:46:58;;;;;;;8.98;2.35;;;11.70;90.50;;;;;;5014645;28;20117;-63
2023/05/19 02:49:24;;;;;;;5.93;2.60;;;11.70;90.70;;;;;;5014093;28;20037;-65
2023/05/19 02:51:50;;;;;;;9.32;2.80;;;11.60;90.80;;;;;;5032057;28;20033;-66
2023/05/19 02:54:15;;;;;;;9.65;2.58;;;11.50;91.00;;;;;;5031781;28;20033;-64
2023/05/19 02:56:41;;;;;;;10.02;2.63;;;11.40;91.30;;;;;;5032126;28;20074;-63
2023/05/19 02:59:06;;;;;;;12.18;2.45;;;11.40;91.40;;;;;;5031870;28;20087;-64
2023/05/19 03:01:32;;;;;;;11.27;3.08;;;11.30;91.60;;;;;;5031910;28;20171;-63
2023/05/19 03:03:58;;;;;;;17.08;3.15;;;11.30;91.80;;;;;;5031642;28;20025;-65
2023/05/19 03:06:23;;;;;;;6.05;2.50;;;11.30;91.90;;;;;;5031440;28;20509;-64
2023/05/19 03:08:50;;;;;;;10.07;2.55;;;11.30;91.90;;;;;;5031876;28;20043;-64
2023/05/19 03:11:16;;;;;;;10.90;2.60;;;11.30;92.00;;;;;;5031454;28;20029;-65
2023/05/19 03:13:41;;;;;;;12.30;2.88;;;11.30;92.10;;;;;;5031300;28;20494;-64
2023/05/19 03:16:07;;;;;;;14.07;4.90;;;11.30;92.10;;;;;;5031320;28;20091;-64
2023/05/19 03:18:36;;;;;;;12.23;3.03;;;11.40;92.10;;;;;;5031021;28;20030;-64
2023/05/19 03:21:01;;;;;;;7.85;2.58;;;11.30;92.30;;;;;;5031056;28;20087;-63
2023/05/19 03:23:27;;;;;;;7.30;2.40;;;11.30;92.40;;;;;;5013966;28;20049;-63
2023/05/19 03:25:54;;;;;;;10.60;2.97;;;11.40;92.30;;;;;;5031203;28;20041;-64
2023/05/19 03:28:22;;;;;;;9.10;2.17;;;11.40;92.40;;;;;;5013372;28;20474;-65
2023/05/19 03:30:49;;;;;;;7.10;2.33;;;11.40;92.60;;;;;;5030869;28;20128;-63
2023/05/19 03:33:15;;;;;;;8.70;2.45;;;11.30;92.60;;;;;;5030918;28;20052;-64
2023/05/19 03:35:40;;;;;;;6.60;2.30;;;11.20;92.80;;;;;;5013768;28;20072;-65
2023/05/19 03:38:06;;;;;;;12.27;3.03;;;11.10;93.00;;;;;;5030845;28;20061;-63
2023/05/19 03:40:32;;;;;;;9.15;2.80;;;11.10;93.20;;;;;;5030778;28;20029;-63
2023/05/19 03:42:57;;;;;;;14.32;3.05;;;11.10;93.30;;;;;;5012832;28;20045;-63
2023/05/19 03:45:23;;;;;;;9.38;2.72;;;11.10;93.00;;;;;;5030756;28;20358;-63
2023/05/19 03:47:48;;;;;;;8.32;2.55;;;11.20;93.20;;;;;;5031348;28;20080;-66
2023/05/19 03:50:14;;;;;;;9.95;2.10;;;11.20;93.20;;;;;;5013185;28;20048;-64
2023/05/19 03:52:45;;;;;;;10.45;2.63;;;11.10;93.30;;;;;;5030600;28;20026;-64
2023/05/19 03:55:13;;;;;;;8.35;2.83;;;11.10;93.40;;;;;;5013104;28;20037;-63
2023/05/19 03:57:40;;;;;;;;;;;11.00;93.50;;;;;;5031109;28;20403;-63
2023/05/19 04:00:06;;;;;;;7.95;2.55;;;11.00;93.80;;;;;;5030418;28;20271;-63
2023/05/19 04:02:32;;;;;;;6.35;2.45;;;11.00;93.70;;;;;;5013391;28;20163;-64
2023/05/19 04:04:57;;;;;;;11.98;2.60;;;11.00;93.80;;;;;;5030456;28;20124;-64
2023/05/19 04:07:23;;;;;;;16.58;3.38;;;10.90;93.80;;;;;;5030236;28;20107;-64
2023/05/19 04:09:49;;;;;;;8.27;2.92;;;10.80;94.00;;;;;;5012715;28;20044;-63
2023/05/19 04:12:15;;;;;;;15.50;2.78;;;10.80;94.40;;;;;;5030120;28;20493;-63
2023/05/19 04:14:41;;;;;;;11.20;2.72;;;10.90;94.00;;;;;;5013227;28;20025;-64
2023/05/19 04:17:07;;;;;;;8.90;3.15;;;10.90;93.80;;;;;;5030247;28;20030;-64
2023/05/19 04:19:32;;;;;;;13.77;4.07;;;10.90;94.00;;;;;;5030367;28;20102;-63
2023/05/19 04:21:58;;;;;;;6.93;2.90;;;10.80;94.30;;;;;;5030111;28;20109;-64
2023/05/19 04:24:24;;;;;;;13.95;3.38;;;10.80;94.30;;;;;;5029995;28;20026;-63
2023/05/19 04:26:50;;;;;;;7.32;3.13;;;10.80;94.50;;;;;;5030595;28;20022;-63
2023/05/19 04:29:16;;;;;;;11.13;3.50;;;10.70;94.60;;;;;;5030355;28;20048;-65
2023/05/19 04:31:43;;;;;;;15.52;3.55;;;10.80;94.50;;;;;;5012322;28;20383;-64
2023/05/19 04:34:09;;;;;;;9.88;3.22;;;10.80;94.30;;;;;;5030274;28;20077;-64
2023/05/19 04:36:35;;;;;;;18.85;3.97;;;10.80;94.50;;;;;;5030053;28;20514;-64
2023/05/19 04:39:03;;;;;;;11.10;3.13;;;10.80;94.60;;;;;;5012557;28;20481;-63
2023/05/19 04:41:29;;;;;;;10.45;2.60;;;10.80;95.00;;;;;;5030583;28;20025;-63
2023/05/19 04:43:56;;;;;;;11.38;3.35;;;10.80;94.90;;;;;;5030063;28;20044;-63
2023/05/19 04:46:23;;;;;;;10.83;3.30;;;10.80;94.90;;;;;;5030263;28;20100;-63
2023/05/19 04:48:49;;;;;;;12.95;3.25;;;10.80;95.10;;;;;;5030084;28;20582;-63
2023/05/19 04:51:16;;;;;;;30.33;5.85;;;10.90;95.10;;;;;;5030035;28;20029;-63
2023/05/19 04:53:42;;;;;;;16.58;4.43;;;10.90;95.10;;;;;;5030910;28;20029;-64
2023/05/19 04:56:14;;;;;;;10.13;3.03;;;11.00;95.00;;;;;;5034045;28;20117;-64
2023/05/19 04:58:40;;;;;;;12.60;2.92;;;11.00;95.00;;;;;;5015498;28;20520;-64
2023/05/19 05:01:08;;;;;;;8.05;3.55;;;11.10;95.00;;;;;;5033860;28;20045;-64
2023/05/19 05:03:34;;;;;;;12.07;3.13;;;11.00;95.10;;;;;;5033617;28;20116;-64
2023/05/19 05:06:00;;;;;;;15.80;4.15;;;11.10;95.10;;;;;;5033555;28;20025;-66
2023/05/19 05:08:26;;;;;;;11.32;3.47;;;11.20;94.90;;;;;;5034105;28;20065;-64
2023/05/19 05:10:52;;;;;;;25.05;4.78;;;11.30;94.80;;;;;;5033835;28;20030;-64
2023/05/19 05:13:21;;;;;;;13.73;3.80;;;11.30;94.90;;;;;;5033508;28;20022;-63
2023/05/19 05:15:47;;;;;;;10.60;3.67;;;11.40;95.00;;;;;;5033824;28;20434;-63
2023/05/19 05:18:14;;;;;;;14.77;5.63;;;11.40;94.60;;;;;;5033527;28;20038;-63
2023/05/19 05:20:41;;;;;;;11.43;3.90;;;11.40;94.90;;;;;;5033949;28;20029;-63
2023/05/19 05:23:08;;;;;;;16.00;3.58;;;11.50;94.80;;;;;;5033326;28;20033;-63
2023/05/19 05:25:34;;;;;;;9.77;2.97;;;11.60;94.50;;;;;;5033425;28;20372;-65
2023/05/19 05:28:03;;;;;;;6.95;3.25;;;11.60;94.30;;;;;;5033389;28;20117;-64
2023/05/19 05:30:29;;;;;;;10.77;2.92;;;11.60;94.80;;;;;;5033491;28;20364;-64
2023/05/19 05:32:56;;;;;;;13.73;3.58;;;11.60;94.90;;;;;;5033844;28;20026;-63
2023/05/19 05:35:22;;;;;;;15.27;3.38;;;11.60;95.00;;;;;;5033367;28;20030;-63
2023/05/19 05:37:48;;;;;;;14.35;3.10;;;11.70;95.00;;;;;;5033482;28;20030;-64
2023/05/19 05:40:14;;;;;;;15.82;3.90;;;11.70;95.20;;;;;;5033074;28;20305;-64
2023/05/19 05:42:40;;;;;;;7.57;3.00;;;11.80;94.90;;;;;;5033218;28;20033;-65
2023/05/19 05:45:06;;;;;;;11.82;3.47;;;12.00;94.30;;;;;;4999114;28;20029;-66
2023/05/19 05:47:32;;;;;;;20.50;3.85;;;12.20;94.00;;;;;;5033438;28;20025;-64
2023/05/19 05:49:58;;;;;;;10.93;3.30;;;12.30;94.00;;;;;;5032944;28;20056;-65
2023/05/19 05:52:29;;;;;;;13.40;3.28;;;12.50;93.90;;;;;;5032778;28;20025;-66
2023/05/19 05:54:55;;;;;;;19.60;3.78;;;12.70;93.50;;;;;;5032964;28;20033;-67
2023/05/19 05:57:21;;;;;;;16.70;3.35;;;13.00;93.30;;;;;;5032921;28;20033;-66
2023/05/19 05:59:47;;;;;;;15.10;3.72;;;13.30;93.10;;;;;;5015902;28;20124;-66
2023/05/19 06:02:12;;;;;;;15.23;3.20;;;13.50;92.70;;;;;;5033368;28;20042;-65
2023/05/19 06:04:39;;;;;;;7.43;2.70;;;13.70;92.30;;;;;;5032397;28;20125;-66
2023/05/19 06:07:05;;;;;;;16.08;3.33;;;14.00;92.20;;;;;;5032569;28;20042;-65
2023/05/19 06:09:31;;;;;;;9.45;2.35;;;14.30;91.80;;;;;;5032651;28;20179;-66
2023/05/19 06:11:58;;;;;;;15.75;4.03;;;14.40;91.30;;;;;;5033068;28;20021;-66
2023/05/19 06:14:24;;;;;;;10.80;3.35;;;14.50;91.30;;;;;;5032792;28;20072;-65
2023/05/19 06:16:50;;;;;;;15.93;4.13;;;14.60;91.00;;;;;;5032480;28;20045;-68
2023/05/19 06:19:16;;;;;;;10.38;3.17;;;14.50;91.00;;;;;;5032672;28;20501;-65
2023/05/19 06:21:42;;;;;;;9.18;2.55;;;14.50;91.00;;;;;;5032364;28;20494;-65
2023/05/19 06:24:08;;;;;;;7.57;2.75;;;14.50;90.90;;;;;;5032222;28;20065;-64
2023/05/19 06:26:33;;;;;;;9.40;2.85;;;14.70;90.90;;;;;;5032615;28;20100;-66
2023/05/19 06:28:59;;;;;;;8.18;2.25;;;14.80;90.90;;;;;;5032289;28;20436;-68
2023/05/19 06:31:27;;;;;;;12.50;2.90;;;15.10;90.50;;;;;;5031938;28;20052;-68
2023/05/19 06:33:53;;;;;;;11.85;3.28;;;15.20;90.30;;;;;;5032533;28;20136;-66
2023/05/19 06:36:18;;;;;;;10.40;2.70;;;15.30;90.20;;;;;;5014329;28;20109;-66
2023/05/19 06:38:44;;;;;;;13.75;2.97;;;15.60;90.00;;;;;;5014948;28;20036;-67
2023/05/19 06:41:10;;;;;;;9.52;2.45;;;15.60;89.90;;;;;;5032245;28;20436;-68
2023/05/19 06:43:35;;;;;;;8.95;2.60;;;15.60;89.30;;;;;;5032179;28;20056;-67
2023/05/19 06:46:01;;;;;;;8.32;2.60;;;15.60;89.50;;;;;;5031838;28;20037;-69
2023/05/19 06:48:27;;;;;;;7.97;2.30;;;15.80;88.80;;;;;;5032030;28;20368;-67
2023/05/19 06:50:52;;;;;;;12.45;2.45;;;15.90;88.60;;;;;;5032054;28;20456;-68
2023/05/19 06:53:20;;;;;;;16.58;3.40;;;15.80;87.80;;;;;;5031691;28;20048;-69
2023/05/19 06:55:48;;;;;;;8.83;2.87;;;15.80;88.10;;;;;;5031721;28;20151;-69
2023/05/19 06:58:15;;;;;;;14.27;2.92;;;15.80;87.90;;;;;;5031709;28;20044;-68
2023/05/19 07:00:41;;;;;;;7.25;2.53;;;15.90;87.40;;;;;;5031567;28;20041;-69
2023/05/19 07:03:06;;;;;;;6.45;1.92;;;16.00;87.60;;;;;;5031653;28;20026;-66
2023/05/19 07:05:32;;;;;;;12.25;2.75;;;16.20;86.90;;;;;;5032020;28;20028;-70
2023/05/19 07:07:57;;;;;;;11.52;2.90;;;16.30;86.70;;;;;;5031614;28;20026;-69
2023/05/19 07:10:23;;;;;;;7.03;2.17;;;16.50;86.30;;;;;;5031254;28;20040;-64
2023/05/19 07:12:49;;;;;;;11.88;2.97;;;16.50;86.60;;;;;;5031402;28;20034;-64
2023/05/19 07:15:14;;;;;;;9.48;2.53;;;16.60;86.40;;;;;;5031476;28;20025;-65
2023/05/19 07:17:40;;;;;;;9.13;2.53;;;16.70;86.20;;;;;;5031035;28;20025;-66
2023/05/19 07:20:08;;;;;;;15.20;2.65;;;16.70;86.00;;;;;;5031183;28;20432;-68
2023/05/19 07:22:37;;;;;;;12.90;2.58;;;16.60;86.00;;;;;;5013457;28;20042;-68
2023/05/19 07:25:02;;;;;;;;;;;16.70;85.90;;;;;;5031423;28;20040;-68
2023/05/19 07:27:28;;;;;;;12.30;3.58;;;16.80;85.30;;;;;;5013454;28;19909;-70
2023/05/19 07:29:53;;;;;;;9.70;3.70;;;16.80;85.60;;;;;;5031306;28;20055;-70
2023/05/19 07:32:19;;;;;;;9.02;2.30;;;17.00;85.30;;;;;;5030938;28;20375;-69
2023/05/19 07:34:45;;;;;;;9.40;2.40;;;16.90;85.10;;;;;;5030997;28;20048;-69
2023/05/19 07:37:10;;;;;;;8.07;2.58;;;17.00;84.80;;;;;;5030974;28;20111;-69
2023/05/19 07:39:36;;;;;;;14.05;2.42;;;17.00;84.40;;;;;;5030624;28;20029;-69
2023/05/19 07:42:02;;;;;;;6.55;2.13;;;17.10;84.20;;;;;;5030791;28;20326;-69
2023/05/19 07:44:30;;;;;;;8.90;2.53;;;17.10;84.20;;;;;;5013508;28;20033;-68
2023/05/19 07:46:56;;;;;;;6.43;2.05;;;17.20;83.90;;;;;;5030921;28;20026;-69
2023/05/19 07:49:21;;;;;;;7.25;2.13;;;17.40;83.90;;;;;;5012716;28;20411;-70
2023/05/19 07:51:47;;;;;;;8.75;2.28;;;17.40;82.80;;;;;;5030660;28;20048;-70
2023/05/19 07:54:13;;;;;;;6.70;1.80;;;17.80;83.50;;;;;;5030594;28;20072;-69
2023/05/19 07:56:38;;;;;;;11.45;2.80;;;17.90;82.20;;;;;;5030874;28;20033;-69
2023/05/19 07:59:05;;;;;;;7.93;2.10;;;18.30;81.60;;;;;;5012767;28;20432;-68
2023/05/19 08:01:31;;;;;;;7.38;2.45;;;18.30;81.10;;;;;;5030419;28;20471;-68
2023/05/19 08:03:57;;;;;;;7.65;2.50;;;18.50;80.40;;;;;;5030420;28;20117;-69
2023/05/19 08:06:24;;;;;;;15.23;2.28;;;18.80;81.50;;;;;;5030401;28;20029;-69
2023/05/19 08:08:50;;;;;;;9.82;2.50;;;19.30;78.90;;;;;;5030911;28;20386;-72
2023/05/19 08:11:16;;;;;;;7.18;1.70;;;19.60;77.40;;;;;;5030110;28;20452;-70
2023/05/19 08:13:42;;;;;;;7.88;2.58;;;20.10;77.50;;;;;;5030440;28;20144;-70
2023/05/19 08:16:07;;;;;;;3.97;1.70;;;20.40;77.10;;;;;;5013046;28;20041;-70
2023/05/19 08:18:33;;;;;;;8.30;2.08;;;21.00;75.30;;;;;;5012984;28;20034;-70
2023/05/19 08:20:58;;;;;;;8.10;1.80;;;21.60;73.00;;;;;;5030186;28;20030;-70
2023/05/19 08:23:24;;;;;;;8.43;1.67;;;22.60;72.60;;;;;;5012761;28;20354;-70
2023/05/19 08:25:51;;;;;;;14.40;2.88;;;23.00;64.70;;;;;;5030265;28;20094;-71
2023/05/19 08:28:16;;;;;;;6.78;1.90;;;23.80;63.90;;;;;;5012281;28;20045;-67
2023/05/19 08:30:42;;;;;;;7.32;1.90;;;25.10;64.30;;;;;;5029769;28;20045;-68
2023/05/19 08:33:07;;;;;;;10.70;1.70;;;25.80;59.30;;;;;;5030414;28;20047;-72
2023/05/19 08:35:33;;;;;;;8.27;2.40;;;26.70;58.20;;;;;;5030412;28;20025;-70
2023/05/19 08:37:59;;;;;;;3.88;1.77;;;27.30;55.30;;;;;;5030009;28;20117;-69
2023/05/19 08:40:27;;;;;;;6.72;1.80;;;28.00;54.50;;;;;;5029993;28;20165;-69
2023/05/19 08:42:53;;;;;;;5.80;2.10;;;28.40;53.90;;;;;;5012320;28;20562;-73
2023/05/19 08:45:19;;;;;;;10.63;3.92;;;29.10;52.70;;;;;;5029937;28;20120;-69
2023/05/19 08:47:49;;;;;;;3.33;1.65;;;29.50;51.90;;;;;;5030376;28;20427;-68
2023/05/19 08:50:27;;;;;;;5.20;1.85;;;30.10;50.50;;;;;;5029849;28;20025;-70
2023/05/19 08:52:56;;;;;;;7.80;1.70;;;30.70;47.90;;;;;;5030122;28;20049;-69
2023/05/19 08:55:33;;;;;;;8.75;1.98;;;31.10;47.30;;;;;;5030078;28;20092;-69
2023/05/19 08:58:02;;;;;;;6.55;1.77;;;31.00;45.40;;;;;;5030067;28;20324;-70
2023/05/19 09:00:28;;;;;;;3.50;1.63;;;31.20;45.10;;;;;;5012469;28;20083;-73
2023/05/19 09:02:54;;;;;;;6.30;1.60;;;31.70;44.00;;;;;;5030199;28;20033;-71
2023/05/19 09:05:20;;;;;;;3.90;1.50;;;31.40;43.80;;;;;;5029737;28;20053;-72
2023/05/19 09:07:47;;;;;;;4.95;1.60;;;32.00;43.40;;;;;;5029650;28;20033;-70
2023/05/19 09:10:14;;;;;;;5.90;1.90;;;32.30;41.50;;;;;;5029840;28;20021;-70
2023/05/19 09:12:44;;;;;;;4.60;1.60;;;32.30;41.60;;;;;;5029772;28;20161;-68
2023/05/19 09:15:10;;;;;;;4.85;1.88;;;32.20;42.10;;;;;;5012164;28;20045;-71
2023/05/19 09:17:36;;;;;;;4.63;1.80;;;32.50;40.60;;;;;;5030402;28;20366;-71
2023/05/19 09:20:09;;;;;;;6.68;1.80;;;31.80;40.10;;;;;;5029633;28;20494;-70
2023/05/19 09:22:46;;;;;;;4.70;1.38;;;31.80;41.20;;;;;;5029614;28;20041;-70
2023/05/19 09:25:19;;;;;;;5.18;1.90;;;31.30;40.90;;;;;;5029580;28;20083;-71
2023/05/19 09:27:48;;;;;;;18.45;9.18;;;31.80;40.20;;;;;;5029341;28;20436;-68
2023/05/19 09:30:15;;;;;;;8.02;2.55;;;31.50;40.60;;;;;;5029511;28;20037;-69
2023/05/19 09:32:41;;;;;;;6.40;1.60;;;31.80;40.50;;;;;;5030214;28;20053;-69
2023/05/19 09:35:08;;;;;;;7.00;2.03;;;32.00;39.60;;;;;;5029451;28;20068;-70
2023/05/19 09:37:33;;;;;;;11.07;2.35;;;30.80;39.50;;;;;;5029372;28;20111;-71
2023/05/19 09:39:59;;;;;;;4.07;1.80;;;30.80;40.90;;;;;;5030507;28;20365;-69
2023/05/19 09:42:25;;;;;;;7.22;2.10;;;30.00;40.80;;;;;;5015296;28;20044;-70
2023/05/19 09:45:01;;;;;;;7.28;2.10;;;30.30;40.70;;;;;;5033296;28;20022;-70
2023/05/19 09:47:31;;;;;;;6.90;1.60;;;30.10;40.70;;;;;;5033294;28;20049;-70
2023/05/19 09:49:57;;;;;;;6.13;1.45;;;29.20;40.80;;;;;;5032906;28;20030;-70
2023/05/19 09:52:23;;;;;;;6.10;2.70;;;28.60;41.20;;;;;;5033106;28;20044;-71
2023/05/19 09:54:50;;;;;;;8.80;3.95;;;28.00;41.50;;;;;;5032593;28;20546;-70
2023/05/19 09:57:16;;;;;;;6.53;2.42;;;27.30;42.40;;;;;;5032953;28;20029;-67
2023/05/19 09:59:43;;;;;;;4.70;1.65;;;26.50;43.10;;;;;;5033541;28;20029;-67
2023/05/19 10:02:19;;;;;;;5.10;1.98;;;26.20;44.10;;;;;;5032607;28;20041;-67
2023/05/19 10:04:46;;;;;;;11.32;2.10;;;25.90;45.70;;;;;;5015545;28;20029;-67
2023/05/19 10:07:14;;;;;;;8.55;1.90;;;26.00;44.80;;;;;;5032668;28;20486;-70
2023/05/19 10:09:41;;;;;;;4.78;1.80;;;25.50;45.60;;;;;;5014964;28;20365;-69
2023/05/19 10:12:08;;;;;;;4.68;1.70;;;25.10;46.90;;;;;;5032424;28;20371;-71
2023/05/19 10:14:34;;;;;;;4.03;1.80;;;24.70;47.30;;;;;;5032869;28;20295;-67
2023/05/19 10:17:00;;;;;;;9.65;2.10;;;24.70;48.10;;;;;;5032409;28;20037;-67
2023/05/19 10:19:27;;;;;;;3.00;1.70;;;24.50;47.80;;;;;;5031965;28;20357;-71
2023/05/19 10:21:53;;;;;;;6.00;2.10;;;24.70;48.10;;;;;;5014801;28;20037;-70
2023/05/19 10:24:20;;;;;;;4.18;1.90;;;24.80;46.80;;;;;;5014706;28;20128;-72
2023/05/19 10:26:51;;;;;;;4.03;1.77;;;24.50;46.90;;;;;;5032446;28;20083;-70
2023/05/19 10:29:24;;;;;;;5.28;1.75;;;24.00;47.50;;;;;;5031897;28;20033;-70
2023/05/19 10:31:52;;;;;;;5.57;1.55;;;24.00;47.40;;;;;;5014401;28;20037;-70
2023/05/19 10:34:17;;;;;;;;;;;24.00;48.20;;;;;;5032451;28;20382;-70
2023/05/19 10:37:27;;;;;;;4.15;1.70;;;24.10;48.80;;;;;;5031877;28;19917;-71
2023/05/19 10:39:54;;;;;;;5.10;1.73;;;24.20;48.50;;;;;;5031880;28;20025;-71
2023/05/19 10:42:39;;;;;;;4.83;1.47;;;24.30;48.00;;;;;;5014545;28;20030;-71
2023/05/19 10:45:16;;;;;;;6.25;2.13;;;24.00;48.30;;;;;;5013863;28;20251;-71
2023/05/19 10:47:43;;;;;;;7.83;3.13;;;24.00;48.30;;;;;;5032337;28;20359;-71
2023/05/19 10:50:09;;;;;;;3.88;1.70;;;24.00;48.00;;;;;;5014001;28;20053;-70
2023/05/19 10:52:39;;;;;;;12.27;2.17;;;24.00;48.60;;;;;;5031553;28;20029;-68
2023/05/19 10:55:16;;;;;;;5.80;2.25;;;23.80;48.80;;;;;;5022434;28;20475;-71
2023/05/19 10:57:57;;;;;;;7.87;1.57;;;23.70;49.00;;;;;;5011856;28;20030;-70
2023/05/19 11:00:28;;;;;;;7.28;2.08;;;23.70;49.00;;;;;;5011706;28;20044;-69
2023/05/19 11:03:12;;;;;;;5.78;1.60;;;23.60;49.60;;;;;;4994844;28;20255;-71
2023/05/19 11:05:37;;;;;;;6.18;1.45;;;23.50;49.30;;;;;;5031552;28;20460;-70
2023/05/19 11:08:06;;;;;;;4.18;1.58;;;23.40;49.60;;;;;;5031001;28;20043;-70
2023/05/19 11:10:33;;;;;;;6.10;1.85;;;23.40;49.50;;;;;;5013367;28;20025;-69
2023/05/19 11:12:59;;;;;;;5.22;1.48;;;23.30;49.00;;;;;;5031042;28;20124;-70
2023/05/19 11:15:28;;;;;;;4.32;2.45;;;23.00;49.20;;;;;;5013579;28;20030;-69
2023/05/19 11:17:54;;;;;;;4.90;1.80;;;23.00;49.40;;;;;;5014103;28;20069;-69
2023/05/19 11:20:26;;;;;;;5.55;2.25;;;22.80;49.30;;;;;;5030747;28;20084;-67
2023/05/19 11:23:36;;;;;;;6.82;1.98;;;22.80;49.80;;;;;;5012830;28;20041;-66
2023/05/19 11:26:02;;;;;;;3.63;1.42;;;22.80;48.40;;;;;;4969816;28;20039;-67
2023/05/19 11:28:29;;;;;;;6.82;1.30;;;22.70;47.30;;;;;;4969811;28;20476;-66
2023/05/19 11:30:57;;;;;;;4.13;1.13;;;22.50;46.60;;;;;;5000924;28;20037;-67
2023/05/19 11:33:26;;;;;;;4.60;1.30;;;22.40;47.70;;;;;;5030623;28;20171;-69
2023/05/19 11:35:56;;;;;;;3.05;1.25;;;22.50;47.20;;;;;;5031156;28;20459;-69
2023/05/19 11:38:22;;;;;;;7.78;1.70;;;22.50;45.50;;;;;;5030529;28;20047;-69
2023/05/19 11:40:51;;;;;;;2.25;1.08;;;22.40;46.60;;;;;;5030215;28;20034;-67
2023/05/19 11:43:17;;;;;;;3.95;1.35;;;22.50;47.20;;;;;;5030521;28;20034;-68
2023/05/19 11:45:42;;;;;;;6.88;1.17;;;22.60;46.70;;;;;;5030740;28;20379;-69
2023/05/19 11:48:12;;;;;;;3.03;1.50;;;22.60;46.60;;;;;;5030630;28;20022;-70
2023/05/19 11:50:40;;;;;;;2.83;1.17;;;22.60;46.60;;;;;;5030828;28;20040;-68
2023/05/19 11:53:06;;;;;;;4.38;1.20;;;22.60;46.70;;;;;;5030377;28;20332;-67
2023/05/19 11:56:07;;;;;;;5.93;1.13;;;22.60;47.00;;;;;;5029699;28;20344;-68
2023/05/19 12:01:54;;;;;;;3.92;1.25;;;22.40;46.30;;;;;;5015075;28;20044;-65
2023/05/19 12:04:20;;;;;;;2.83;1.10;;;22.20;46.30;;;;;;5010089;28;20030;-65
2023/05/19 12:06:48;;;;;;;3.28;1.13;;;22.10;46.70;;;;;;5010397;28;20061;-66
2023/05/19 12:09:13;;;;;;;2.85;1.33;;;22.00;46.70;;;;;;4993142;28;20037;-65
2023/05/19 12:11:39;;;;;;;2.53;1.13;;;21.90;46.90;;;;;;5009767;28;20092;-67
2023/05/19 12:14:05;;;;;;;4.00;1.20;;;21.90;46.80;;;;;;5010689;28;20452;-66
2023/05/19 12:16:35;;;;;;;6.20;1.77;;;21.70;46.80;;;;;;5010244;28;20470;-66
2023/05/19 12:19:04;;;;;;;3.13;1.02;;;21.70;46.50;;;;;;5010430;28;20038;-68
2023/05/19 12:21:30;;;;;;;3.47;1.10;;;21.70;46.70;;;;;;5010205;28;20034;-68
2023/05/19 12:23:57;;;;;;;3.60;1.48;;;21.70;47.00;;;;;;5010596;28;20032;-68
2023/05/19 12:26:22;;;;;;;2.88;0.90;;;21.80;47.20;;;;;;4992721;28;20376;-69
2023/05/19 12:28:49;;;;;;;2.30;1.38;;;21.90;46.50;;;;;;5010084;28;20041;-69
2023/05/19 12:31:16;;;;;;;6.50;1.40;;;21.70;46.20;;;;;;5010062;28;20335;-69
2023/05/19 12:33:42;;;;;;;1.65;0.93;;;21.80;46.50;;;;;;5009231;28;20514;-65
2023/05/19 12:36:09;;;;;;;3.53;1.30;;;22.00;46.50;;;;;;5010200;28;20018;-69
2023/05/19 12:38:38;;;;;;;2.00;1.35;;;22.00;46.00;;;;;;5010763;28;20018;-67
2023/05/19 12:41:05;;;;;;;2.92;1.33;;;22.10;46.30;;;;;;5009370;28;20530;-66
2023/05/19 12:43:32;;;;;;;4.03;1.00;;;22.10;45.80;;;;;;5010144;28;20042;-67
2023/05/19 12:45:58;;;;;;;1.27;1.00;;;22.10;46.10;;;;;;5010079;28;20495;-66
2023/05/19 12:48:23;;;;;;;2.58;1.10;;;22.00;46.70;;;;;;5008932;28;20538;-71
2023/05/19 12:50:54;;;;;;;3.88;1.17;;;22.00;46.70;;;;;;4993352;28;20068;-66
2023/05/19 12:53:20;;;;;;;4.07;0.90;;;22.10;47.10;;;;;;5010211;28;20361;-67